Time;durP1;ratioP1;P1;durP2;ratioP2;P2;SDS_P1;SDS_P2;PMS_P1;PMS_P2;Temp;Humidity;BMP_temperature;BMP_pressure;BME280_temperature;BME280_humidity;BME280_pressure;Samples;Min_cycle;Max_cycle;Signal;HPM_P1;HPM_P2
2023/02/02 00:01:57;;;;;;;9.80;2.90;;;10.20;99.90;;;;;;5051148;28;20169;-78
2023/02/02 00:04:28;;;;;;;10.00;2.85;;;10.20;99.90;;;;;;5049849;28;20655;-79
2023/02/02 00:06:56;;;;;;;13.18;2.78;;;10.20;99.90;;;;;;5050034;28;20209;-79
2023/02/02 00:09:22;;;;;;;5.78;2.45;;;10.20;99.90;;;;;;5050673;28;20202;-79
2023/02/02 00:11:49;;;;;;;12.23;3.13;;;10.20;99.90;;;;;;5049977;28;20180;-78
2023/02/02 00:14:16;;;;;;;8.93;2.75;;;10.20;99.90;;;;;;5051272;28;20672;-78
2023/02/02 00:16:47;;;;;;;10.15;3.05;;;10.30;99.90;;;;;;5053924;28;20197;-80
2023/02/02 00:19:21;;;;;;;13.90;4.07;;;10.20;99.90;;;;;;5050060;28;20519;-80
2023/02/02 00:21:48;;;;;;;10.38;4.60;;;10.20;99.90;;;;;;5033314;28;20644;-79
2023/02/02 00:24:17;;;;;;;12.45;2.80;;;10.20;99.90;;;;;;5049355;28;20520;-80
2023/02/02 00:26:44;;;;;;;7.22;3.38;;;10.20;99.90;;;;;;5049835;28;20885;-79
2023/02/02 00:29:17;;;;;;;14.30;2.45;;;10.20;99.90;;;;;;5032968;28;20165;-80
2023/02/02 00:31:43;;;;;;;15.30;3.75;;;10.20;99.90;;;;;;5049272;28;20594;-80
2023/02/02 00:34:11;;;;;;;9.57;3.08;;;10.20;99.90;;;;;;5050733;28;20603;-80
2023/02/02 00:36:37;;;;;;;6.82;2.53;;;10.20;99.90;;;;;;5051318;28;20208;-80
2023/02/02 00:39:03;;;;;;;10.30;2.60;;;10.10;99.90;;;;;;5050783;28;20671;-80
2023/02/02 00:41:29;;;;;;;6.70;2.80;;;10.10;99.90;;;;;;5049697;28;20607;-80
2023/02/02 00:46:40;;;;;;;6.85;2.50;;;10.10;99.90;;;;;;5033195;28;21201;-78
2023/02/02 00:49:07;;;;;;;7.32;2.67;;;10.10;99.90;;;;;;5032494;28;20181;-78
2023/02/02 00:51:32;;;;;;;14.32;3.00;;;10.10;99.90;;;;;;5016179;28;20172;-79
2023/02/02 00:53:58;;;;;;;10.40;3.00;;;10.20;99.90;;;;;;5054250;28;20180;-78
2023/02/02 00:56:24;;;;;;;13.17;3.90;;;10.20;99.90;;;;;;5052676;28;20635;-79
2023/02/02 00:58:51;;;;;;;8.35;3.40;;;10.20;99.90;;;;;;5033654;28;20169;-79
2023/02/02 01:01:22;;;;;;;9.47;2.60;;;10.20;99.90;;;;;;5051394;28;20169;-79
2023/02/02 01:03:49;;;;;;;15.30;2.47;;;10.20;99.90;;;;;;5050579;28;20173;-78
2023/02/02 01:06:15;;;;;;;11.25;2.97;;;10.30;99.90;;;;;;5051866;28;20192;-78
2023/02/02 01:08:41;;;;;;;7.25;2.78;;;10.30;99.90;;;;;;5051401;28;20177;-78
2023/02/02 01:11:07;;;;;;;5.73;2.50;;;10.30;99.90;;;;;;5050546;28;20330;-80
2023/02/02 01:13:33;;;;;;;7.75;2.30;;;10.30;99.90;;;;;;5050183;28;20184;-80
2023/02/02 01:16:01;;;;;;;6.60;2.70;;;10.30;99.90;;;;;;5049482;28;20243;-79
2023/02/02 01:18:27;;;;;;;11.20;2.58;;;10.30;99.90;;;;;;5049563;28;20184;-79
2023/02/02 01:21:05;;;;;;;16.63;3.90;;;10.30;99.90;;;;;;5048896;28;20181;-81
2023/02/02 01:23:32;;;;;;;12.90;2.85;;;10.30;99.90;;;;;;5051433;28;20207;-78
2023/02/02 01:25:59;;;;;;;14.38;3.28;;;10.30;99.90;;;;;;5054829;28;20192;-78
2023/02/02 01:28:26;;;;;;;7.85;2.85;;;10.40;99.90;;;;;;5036805;28;20188;-80
2023/02/02 01:30:54;;;;;;;11.63;4.68;;;10.30;99.90;;;;;;5055641;28;20636;-77
2023/02/02 01:33:21;;;;;;;7.10;2.30;;;10.40;99.90;;;;;;5055100;28;20173;-81
2023/02/02 01:35:52;;;;;;;7.18;2.42;;;10.40;99.90;;;;;;5020215;28;20201;-80
2023/02/02 01:38:18;;;;;;;10.23;2.33;;;10.40;99.90;;;;;;5054239;28;20586;-80
2023/02/02 01:40:50;;;;;;;9.10;3.10;;;10.30;99.90;;;;;;5054224;28;20204;-80
2023/02/02 01:43:25;;;;;;;9.25;2.65;;;10.40;99.90;;;;;;5055650;28;20199;-80
2023/02/02 01:45:52;;;;;;;8.23;3.38;;;10.30;99.90;;;;;;5054278;28;20200;-80
2023/02/02 01:48:27;;;;;;;11.85;3.42;;;10.30;99.90;;;;;;5054728;28;20264;-80
2023/02/02 01:50:57;;;;;;;10.13;3.17;;;10.20;99.90;;;;;;5053339;28;20203;-80
2023/02/02 01:53:23;;;;;;;9.00;3.25;;;10.20;99.90;;;;;;5055089;28;20179;-80
2023/02/02 01:55:50;;;;;;;12.93;3.67;;;10.10;99.90;;;;;;5053555;28;20280;-80
2023/02/02 01:58:23;;;;;;;10.95;3.22;;;10.10;99.90;;;;;;5054831;28;20177;-80
2023/02/02 02:00:50;;;;;;;11.27;3.45;;;10.10;99.90;;;;;;5036448;28;20230;-80
2023/02/02 02:03:23;;;;;;;7.50;2.75;;;10.00;99.90;;;;;;5051358;28;20188;-80
2023/02/02 02:05:54;;;;;;;9.55;2.40;;;10.00;99.90;;;;;;5030109;28;20204;-80
2023/02/02 02:08:27;;;;;;;9.27;2.75;;;10.00;99.90;;;;;;5055197;28;20547;-80
2023/02/02 02:10:53;;;;;;;8.52;2.38;;;10.00;99.90;;;;;;5038140;28;20204;-80
2023/02/02 02:16:17;;;;;;;6.33;2.30;;;10.00;99.90;;;;;;5020643;28;20258;-79
2023/02/02 02:16:36;;;;;;;8.98;2.70;;;10.00;99.90;;;;;;5037902;28;21088;-79
2023/02/02 02:26:32;;;;;;;12.88;2.65;;;10.00;99.90;;;;;;5033576;28;20184;-79
2023/02/02 02:29:16;;;;;;;6.68;2.60;;;9.90;99.90;;;;;;5036079;28;20621;-79
2023/02/02 02:32:14;;;;;;;10.73;3.58;;;9.90;99.90;;;;;;5036964;28;20189;-79
2023/02/02 02:34:53;;;;;;;7.90;2.72;;;9.90;99.90;;;;;;5034584;28;20177;-79
2023/02/02 02:37:35;;;;;;;11.65;2.20;;;9.90;99.90;;;;;;5036750;28;20236;-78
2023/02/02 02:40:15;;;;;;;10.10;2.35;;;9.90;99.90;;;;;;5019803;28;20570;-79
2023/02/02 02:42:48;;;;;;;9.15;2.60;;;9.90;99.90;;;;;;5036773;28;20176;-79
2023/02/02 02:45:16;;;;;;;10.88;2.97;;;9.90;99.90;;;;;;5055197;28;20193;-79
2023/02/02 02:47:43;;;;;;;13.75;3.75;;;9.90;99.90;;;;;;5053833;28;20675;-79
2023/02/02 02:50:09;;;;;;;10.10;3.33;;;9.90;99.90;;;;;;5053735;28;20235;-79
2023/02/02 02:52:36;;;;;;;8.95;2.70;;;9.90;99.90;;;;;;5037244;28;20177;-79
2023/02/02 02:55:04;;;;;;;12.02;3.47;;;9.90;99.90;;;;;;5055184;28;20263;-79
2023/02/02 02:57:48;;;;;;;9.15;3.08;;;9.90;99.90;;;;;;5054028;28;20561;-79
2023/02/02 03:00:24;;;;;;;10.18;3.25;;;9.90;99.90;;;;;;5035957;28;20189;-79
2023/02/02 03:03:17;;;;;;;9.73;3.28;;;9.90;99.90;;;;;;5052506;28;20200;-80
2023/02/02 03:06:06;;;;;;;13.45;3.60;;;9.90;99.90;;;;;;5053963;28;20602;-79
2023/02/02 03:08:40;;;;;;;7.03;2.60;;;9.90;99.90;;;;;;5052883;28;20173;-79
2023/02/02 03:11:09;;;;;;;4.75;2.58;;;9.90;99.90;;;;;;5053605;28;20183;-80
2023/02/02 03:13:35;;;;;;;10.52;4.00;;;10.00;99.90;;;;;;5035631;28;20185;-79
2023/02/02 03:16:01;;;;;;;9.70;3.70;;;10.00;99.90;;;;;;5052011;28;20207;-79
2023/02/02 03:18:29;;;;;;;6.83;3.57;;;10.00;99.90;;;;;;5051776;28;20200;-79
2023/02/02 03:20:55;;;;;;;12.73;3.42;;;10.00;99.90;;;;;;5053281;28;21115;-79
2023/02/02 03:23:21;;;;;;;13.20;4.17;;;10.00;99.90;;;;;;5054277;28;20260;-79
2023/02/02 03:25:47;;;;;;;14.93;4.60;;;10.00;99.90;;;;;;5052958;28;20595;-78
2023/02/02 03:28:14;;;;;;;11.67;3.53;;;10.00;99.90;;;;;;5052371;28;20185;-78
2023/02/02 03:30:41;;;;;;;13.13;3.65;;;9.90;99.90;;;;;;5052575;28;20598;-78
2023/02/02 03:33:09;;;;;;;14.27;4.53;;;9.90;99.90;;;;;;5052562;28;20188;-80
2023/02/02 03:35:34;;;;;;;9.80;3.70;;;10.00;99.90;;;;;;5052885;28;20216;-80
2023/02/02 03:38:00;;;;;;;15.17;4.00;;;9.90;99.90;;;;;;5053724;28;20173;-80
2023/02/02 03:40:27;;;;;;;6.87;3.50;;;9.90;99.90;;;;;;5051977;28;20184;-80
2023/02/02 03:42:53;;;;;;;10.77;4.30;;;9.90;99.90;;;;;;5053945;28;20221;-80
2023/02/02 03:45:18;;;;;;;6.53;3.10;;;9.90;99.90;;;;;;5052150;28;20261;-80
2023/02/02 03:47:44;;;;;;;13.23;4.00;;;9.90;99.90;;;;;;5053089;28;20180;-79
2023/02/02 03:50:10;;;;;;;4.80;2.60;;;9.90;99.90;;;;;;5052005;28;20177;-80
2023/02/02 03:52:36;;;;;;;9.30;3.40;;;9.90;99.90;;;;;;5053640;28;20168;-79
2023/02/02 03:55:01;;;;;;;9.63;3.50;;;9.90;99.90;;;;;;5035296;28;20602;-80
2023/02/02 03:57:27;;;;;;;7.10;3.50;;;9.90;99.90;;;;;;5053233;28;20183;-79
2023/02/02 03:59:53;;;;;;;14.90;4.00;;;9.90;99.90;;;;;;5053992;28;20671;-79
2023/02/02 04:02:19;;;;;;;9.33;2.60;;;9.90;99.90;;;;;;5052647;28;20218;-79
2023/02/02 04:04:44;;;;;;;7.43;3.00;;;9.90;99.90;;;;;;5055131;28;20183;-79
2023/02/02 04:07:10;;;;;;;18.60;3.80;;;9.90;99.90;;;;;;5053514;28;20545;-79
2023/02/02 04:09:36;;;;;;;9.13;3.57;;;9.90;99.90;;;;;;5054071;28;20730;-78
2023/02/02 04:12:01;;;;;;;11.57;4.30;;;9.90;99.90;;;;;;5055227;28;20231;-78
2023/02/02 04:14:27;;;;;;;7.17;3.57;;;9.90;99.90;;;;;;5056252;28;20279;-78
2023/02/02 04:16:52;;;;;;;10.30;3.40;;;9.90;99.90;;;;;;5053834;28;20215;-79
2023/02/02 04:19:18;;;;;;;10.80;4.20;;;9.90;99.90;;;;;;5055871;28;20174;-78
2023/02/02 04:21:44;;;;;;;7.73;3.07;;;9.90;99.90;;;;;;5055179;28;20177;-78
2023/02/02 04:24:11;;;;;;;9.80;3.57;;;9.80;99.90;;;;;;5054334;28;20177;-78
2023/02/02 04:26:37;;;;;;;9.77;3.70;;;9.90;99.90;;;;;;5038278;28;20235;-78
2023/02/02 04:29:03;;;;;;;6.63;2.90;;;9.80;99.90;;;;;;5036641;28;20535;-78
2023/02/02 04:31:29;;;;;;;5.37;3.27;;;9.80;99.90;;;;;;5053585;28;20265;-78
2023/02/02 04:33:58;;;;;;;12.13;3.40;;;9.80;99.90;;;;;;5037185;28;20479;-78
2023/02/02 04:36:25;;;;;;;11.65;3.75;;;9.80;99.90;;;;;;5053749;28;20227;-78
2023/02/02 04:38:52;;;;;;;8.05;3.90;;;9.80;99.90;;;;;;5054799;28;20236;-78
2023/02/02 04:41:18;;;;;;;10.07;3.30;;;9.80;99.90;;;;;;5056620;28;20256;-78
2023/02/02 04:43:45;;;;;;;7.45;3.35;;;9.80;99.90;;;;;;5056816;28;20574;-78
2023/02/02 04:46:11;;;;;;;9.88;3.30;;;9.70;99.90;;;;;;5039458;28;20188;-78
2023/02/02 04:48:37;;;;;;;11.52;4.32;;;9.70;99.90;;;;;;5056655;28;20185;-78
2023/02/02 04:51:06;;;;;;;12.40;4.05;;;9.70;99.90;;;;;;5056861;28;20239;-78
2023/02/02 04:53:32;;;;;;;11.05;4.00;;;9.70;99.90;;;;;;5040895;28;20173;-78
2023/02/02 04:56:05;;;;;;;9.70;3.58;;;9.70;99.90;;;;;;5053824;28;20571;-78
2023/02/02 04:58:31;;;;;;;6.60;3.00;;;9.70;99.90;;;;;;5056392;28;20211;-78
2023/02/02 05:00:57;;;;;;;9.03;3.17;;;9.70;99.90;;;;;;5058628;28;20169;-78
2023/02/02 05:03:22;;;;;;;8.07;2.90;;;9.70;99.90;;;;;;5059401;28;20188;-78
2023/02/02 05:05:48;;;;;;;12.03;3.50;;;9.70;99.90;;;;;;5059251;28;20204;-78
2023/02/02 05:08:14;;;;;;;8.37;2.93;;;9.70;99.90;;;;;;5058655;28;20188;-78
2023/02/02 05:10:40;;;;;;;18.83;4.60;;;9.70;99.90;;;;;;5059074;28;20169;-79
2023/02/02 05:13:07;;;;;;;10.27;3.70;;;9.70;99.90;;;;;;5058052;28;20244;-78
2023/02/02 05:15:33;;;;;;;11.07;4.10;;;9.70;99.90;;;;;;5060678;28;20209;-78
2023/02/02 05:17:59;;;;;;;14.77;4.25;;;9.60;99.90;;;;;;5059503;28;20165;-78
2023/02/02 05:20:24;;;;;;;9.43;4.13;;;9.60;99.90;;;;;;5059636;28;20272;-79
2023/02/02 05:22:50;;;;;;;11.47;4.80;;;9.60;99.90;;;;;;5041438;28;20318;-78
2023/02/02 05:25:16;;;;;;;8.27;3.73;;;9.60;99.90;;;;;;5060050;28;20173;-78
2023/02/02 05:27:43;;;;;;;13.10;4.60;;;9.60;99.90;;;;;;5058201;28;20234;-78
2023/02/02 05:30:12;;;;;;;17.27;3.50;;;9.60;99.90;;;;;;5058978;28;20173;-78
2023/02/02 05:32:38;;;;;;;13.15;5.65;;;9.60;99.90;;;;;;5057255;28;20168;-79
2023/02/02 05:35:04;;;;;;;12.65;4.30;;;9.60;99.90;;;;;;5053841;28;20172;-79
2023/02/02 05:37:30;;;;;;;9.77;3.75;;;9.60;99.90;;;;;;5053749;28;20653;-79
2023/02/02 05:39:56;;;;;;;10.13;4.07;;;9.60;99.90;;;;;;5055206;28;20768;-79
2023/02/02 05:42:22;;;;;;;12.67;3.77;;;9.60;99.90;;;;;;5057602;28;20637;-78
2023/02/02 05:44:47;;;;;;;12.23;3.50;;;9.60;99.90;;;;;;5055886;28;20645;-78
2023/02/02 05:47:13;;;;;;;13.07;4.67;;;9.60;99.90;;;;;;5057638;28;20900;-78
2023/02/02 05:49:39;;;;;;;12.30;4.30;;;9.60;99.90;;;;;;5057450;28;20188;-78
2023/02/02 05:52:04;;;;;;;15.30;4.70;;;9.60;99.90;;;;;;5057517;28;20513;-79
2023/02/02 05:54:30;;;;;;;13.80;4.83;;;9.60;99.90;;;;;;5054627;28;20234;-78
2023/02/02 05:56:56;;;;;;;8.57;3.93;;;9.60;99.90;;;;;;5053322;28;20639;-77
2023/02/02 05:59:23;;;;;;;9.93;5.27;;;9.60;99.90;;;;;;5054801;28;20180;-77
2023/02/02 06:01:48;;;;;;;10.00;4.72;;;9.60;99.90;;;;;;5054814;28;20246;-78
2023/02/02 06:04:14;;;;;;;10.73;4.47;;;9.60;99.90;;;;;;5052784;28;20288;-77
2023/02/02 06:06:41;;;;;;;12.70;5.00;;;9.60;99.90;;;;;;5053997;28;20228;-78
2023/02/02 06:09:07;;;;;;;9.68;3.72;;;9.60;99.90;;;;;;5051819;28;20260;-77
2023/02/02 06:11:33;;;;;;;9.52;3.67;;;9.60;99.90;;;;;;5053302;28;20226;-79
2023/02/02 06:13:59;;;;;;;7.00;3.45;;;9.60;99.90;;;;;;5052068;28;20213;-79
2023/02/02 06:16:24;;;;;;;10.30;4.57;;;9.60;99.90;;;;;;5051624;28;20236;-79
2023/02/02 06:18:50;;;;;;;10.60;4.37;;;9.60;99.90;;;;;;5051813;28;20171;-80
2023/02/02 06:21:18;;;;;;;11.02;4.90;;;9.60;99.90;;;;;;5035164;28;20177;-79
2023/02/02 06:23:44;;;;;;;9.35;4.32;;;9.60;99.90;;;;;;5053548;28;20232;-79
2023/02/02 06:26:12;;;;;;;10.00;4.50;;;9.60;99.90;;;;;;5053330;28;20185;-80
2023/02/02 06:28:37;;;;;;;10.52;4.55;;;9.60;99.90;;;;;;5051399;28;20275;-80
2023/02/02 06:31:05;;;;;;;11.23;4.80;;;9.60;99.90;;;;;;5053131;28;20251;-80
2023/02/02 06:33:30;;;;;;;11.48;5.70;;;9.70;99.90;;;;;;5053135;28;20188;-80
2023/02/02 06:36:01;;;;;;;12.37;4.60;;;9.70;99.90;;;;;;5051755;28;20209;-80
2023/02/02 06:38:27;;;;;;;9.38;6.10;;;9.70;99.90;;;;;;5051646;28;20173;-80
2023/02/02 06:40:53;;;;;;;11.50;5.30;;;9.70;99.90;;;;;;5051502;28;20619;-80
2023/02/02 06:43:18;;;;;;;11.00;5.77;;;9.70;99.90;;;;;;5052378;28;20494;-80
2023/02/02 06:45:44;;;;;;;13.57;5.27;;;9.70;99.90;;;;;;5051655;28;20193;-79
2023/02/02 06:48:10;;;;;;;9.90;4.77;;;9.70;99.90;;;;;;5053088;28;20578;-80
2023/02/02 06:50:39;;;;;;;15.82;5.60;;;9.70;99.90;;;;;;5051098;28;20169;-79
2023/02/02 06:53:05;;;;;;;11.70;6.07;;;9.70;99.90;;;;;;5051315;28;20169;-80
2023/02/02 06:55:31;;;;;;;9.50;4.60;;;9.70;99.90;;;;;;5049979;28;20205;-80
2023/02/02 06:57:58;;;;;;;12.80;4.63;;;9.70;99.90;;;;;;5034876;28;20587;-80
2023/02/02 07:00:25;;;;;;;12.18;5.20;;;9.70;99.90;;;;;;5050437;28;20177;-80
2023/02/02 07:02:51;;;;;;;11.82;4.90;;;9.80;99.90;;;;;;5034228;28;20173;-79
2023/02/02 07:05:22;;;;;;;12.07;5.57;;;9.80;99.90;;;;;;5053954;28;20192;-79
2023/02/02 07:07:49;;;;;;;13.18;4.60;;;9.80;99.90;;;;;;5052065;28;20191;-79
2023/02/02 07:10:15;;;;;;;15.20;4.25;;;9.80;99.90;;;;;;5051904;28;20175;-79
2023/02/02 07:12:41;;;;;;;8.80;4.88;;;9.80;99.90;;;;;;5052321;28;20264;-79
2023/02/02 07:15:07;;;;;;;12.73;5.60;;;9.80;99.90;;;;;;5051393;28;20284;-78
2023/02/02 07:17:33;;;;;;;10.40;6.85;;;9.80;99.90;;;;;;5050600;28;20173;-79
2023/02/02 07:19:59;;;;;;;10.83;4.60;;;9.80;99.90;;;;;;5049540;28;20260;-79
2023/02/02 07:22:25;;;;;;;11.83;5.53;;;9.80;99.90;;;;;;5051242;28;21126;-79
2023/02/02 07:24:50;;;;;;;10.90;4.60;;;9.80;99.90;;;;;;5050507;28;20283;-80
2023/02/02 07:27:16;;;;;;;10.70;5.20;;;9.80;99.90;;;;;;5048664;28;20216;-79
2023/02/02 07:29:42;;;;;;;11.17;5.70;;;9.80;99.90;;;;;;5051305;28;20222;-77
2023/02/02 07:32:08;;;;;;;11.10;5.60;;;9.90;99.90;;;;;;5050323;28;20177;-76
2023/02/02 07:34:37;;;;;;;11.07;5.93;;;9.90;99.90;;;;;;5051690;28;20181;-77
2023/02/02 07:37:03;;;;;;;10.98;4.88;;;9.90;99.90;;;;;;5048934;28;20223;-77
2023/02/02 07:39:28;;;;;;;16.00;5.40;;;9.90;99.90;;;;;;5049300;28;20555;-77
2023/02/02 07:41:54;;;;;;;11.13;5.83;;;9.90;99.90;;;;;;5053395;28;20584;-77
2023/02/02 07:44:30;;;;;;;13.75;4.88;;;9.90;99.90;;;;;;5034175;28;20176;-77
2023/02/02 07:46:56;;;;;;;10.53;6.40;;;10.00;99.90;;;;;;5051595;28;20672;-77
2023/02/02 07:49:21;;;;;;;8.27;4.43;;;10.00;99.90;;;;;;5049735;28;20188;-77
2023/02/02 07:51:48;;;;;;;11.20;5.30;;;10.00;99.90;;;;;;5049568;28;20180;-77
2023/02/02 07:54:14;;;;;;;15.27;5.63;;;10.00;99.90;;;;;;5050376;28;20204;-79
2023/02/02 07:56:40;;;;;;;10.30;5.57;;;10.00;99.90;;;;;;5051571;28;20254;-79
2023/02/02 07:59:06;;;;;;;10.30;4.93;;;10.00;99.90;;;;;;5051475;28;20165;-79
2023/02/02 08:01:32;;;;;;;9.07;4.60;;;10.00;99.90;;;;;;5050948;28;20180;-78
2023/02/02 08:03:59;;;;;;;8.80;4.40;;;10.00;99.90;;;;;;5052087;28;20572;-79
2023/02/02 08:06:34;;;;;;;8.20;5.07;;;10.00;99.90;;;;;;5050563;28;20600;-79
2023/02/02 08:09:24;;;;;;;10.68;4.70;;;10.00;99.90;;;;;;5049214;28;20567;-78
2023/02/02 08:11:50;;;;;;;9.45;4.82;;;10.00;99.90;;;;;;5051177;28;20519;-79
2023/02/02 08:14:16;;;;;;;11.37;4.10;;;10.00;99.90;;;;;;5050817;28;20173;-79
2023/02/02 08:16:41;;;;;;;12.00;7.17;;;10.00;99.90;;;;;;5051258;28;20299;-79
2023/02/02 08:19:09;;;;;;;9.90;4.28;;;10.00;99.90;;;;;;5053701;28;20574;-80
2023/02/02 08:21:35;;;;;;;9.30;4.60;;;10.00;99.90;;;;;;5032976;28;20216;-80
2023/02/02 08:24:01;;;;;;;8.80;4.37;;;10.00;99.90;;;;;;5051073;28;20212;-80
2023/02/02 08:26:29;;;;;;;10.40;5.07;;;10.00;99.90;;;;;;5050243;28;20619;-80
2023/02/02 08:29:00;;;;;;;11.57;5.15;;;10.00;99.90;;;;;;5051928;28;20193;-81
2023/02/02 08:31:30;;;;;;;12.90;4.68;;;10.00;99.90;;;;;;5052194;28;20176;-80
2023/02/02 08:33:59;;;;;;;10.50;5.05;;;10.00;99.90;;;;;;5050637;28;20206;-80
2023/02/02 08:36:27;;;;;;;9.02;5.38;;;10.00;99.90;;;;;;5053392;28;20371;-80
2023/02/02 08:38:53;;;;;;;8.25;4.40;;;10.00;99.90;;;;;;5052296;28;20177;-80
2023/02/02 08:41:22;;;;;;;15.30;7.10;;;10.00;99.90;;;;;;5054074;28;20165;-80
2023/02/02 08:43:49;;;;;;;8.05;5.28;;;10.00;99.90;;;;;;5036346;28;20204;-80
2023/02/02 08:46:16;;;;;;;16.25;5.05;;;10.00;99.90;;;;;;5053729;28;20204;-80
2023/02/02 08:48:42;;;;;;;10.68;4.80;;;10.00;99.90;;;;;;5052699;28;20177;-80
2023/02/02 08:51:11;;;;;;;8.80;4.83;;;10.00;99.90;;;;;;5052431;28;20219;-80
2023/02/02 08:53:40;;;;;;;12.40;5.70;;;10.00;99.90;;;;;;5054017;28;20670;-80
2023/02/02 08:56:13;;;;;;;14.00;6.32;;;10.00;99.90;;;;;;5056434;28;20217;-80
2023/02/02 08:58:42;;;;;;;9.60;5.97;;;10.00;99.90;;;;;;5052383;28;20173;-80
2023/02/02 09:01:14;;;;;;;12.70;6.20;;;10.00;99.90;;;;;;5050496;28;20173;-79
2023/02/02 09:03:43;;;;;;;17.52;6.32;;;10.00;99.90;;;;;;5053398;28;20257;-79
2023/02/02 09:06:11;;;;;;;12.35;5.47;;;10.00;99.90;;;;;;5055359;28;20555;-79
2023/02/02 09:08:38;;;;;;;11.07;6.18;;;10.00;99.90;;;;;;5055460;28;20276;-77
2023/02/02 09:11:23;;;;;;;13.13;7.00;;;10.10;99.90;;;;;;5053000;28;20173;-77
2023/02/02 09:13:56;;;;;;;11.35;5.95;;;10.10;99.90;;;;;;5050786;28;20665;-78
2023/02/02 09:16:23;;;;;;;5.25;4.45;;;10.10;99.90;;;;;;5051872;28;20216;-78
2023/02/02 09:18:49;;;;;;;9.73;6.22;;;10.10;99.90;;;;;;5053730;28;20506;-78
2023/02/02 09:21:16;;;;;;;14.85;6.18;;;10.10;99.90;;;;;;5050969;28;20543;-78
2023/02/02 09:23:43;;;;;;;8.43;5.85;;;10.10;99.90;;;;;;5053232;28;20169;-77
2023/02/02 09:26:14;;;;;;;12.45;6.70;;;10.20;99.90;;;;;;5051050;28;20338;-78
2023/02/02 09:28:43;;;;;;;7.47;5.90;;;10.30;99.90;;;;;;5051372;28;20171;-78
2023/02/02 09:31:10;;;;;;;9.63;6.57;;;10.30;99.90;;;;;;5049113;28;20652;-76
2023/02/02 09:33:36;;;;;;;9.13;5.45;;;10.30;99.90;;;;;;5057027;28;20172;-77
2023/02/02 09:36:20;;;;;;;8.32;5.72;;;10.30;99.90;;;;;;5052183;28;20204;-76
2023/02/02 09:38:47;;;;;;;14.10;6.35;;;10.30;99.90;;;;;;5050458;28;20169;-76
2023/02/02 09:41:39;;;;;;;15.27;6.88;;;10.40;99.90;;;;;;5051729;28;20255;-76
2023/02/02 09:44:31;;;;;;;11.05;6.70;;;10.40;99.90;;;;;;5028400;28;20195;-76
2023/02/02 09:47:07;;;;;;;8.60;5.85;;;10.50;99.90;;;;;;5037388;28;20193;-76
2023/02/02 09:50:14;;;;;;;12.73;7.07;;;10.40;99.90;;;;;;5053993;28;20177;-76
2023/02/02 09:53:12;;;;;;;9.68;5.65;;;10.40;99.90;;;;;;5056875;28;20536;-75
2023/02/02 09:55:41;;;;;;;11.82;6.35;;;10.40;99.90;;;;;;5043814;28;20236;-75
2023/02/02 09:58:23;;;;;;;10.50;6.43;;;10.40;99.90;;;;;;5055943;28;20626;-75
2023/02/02 10:01:12;;;;;;;9.45;5.60;;;10.40;99.90;;;;;;5064443;28;20192;-78
2023/02/02 10:03:52;;;;;;;11.20;5.25;;;10.40;99.90;;;;;;5064603;28;20189;-78
2023/02/02 10:06:34;;;;;;;7.95;4.75;;;10.40;99.90;;;;;;5054340;28;20227;-78
2023/02/02 10:09:09;;;;;;;9.13;5.07;;;10.40;99.90;;;;;;5054607;28;20179;-77
2023/02/02 10:12:04;;;;;;;9.02;4.80;;;10.40;99.90;;;;;;5056723;28;20525;-77
2023/02/02 10:14:40;;;;;;;6.95;5.15;;;10.40;99.90;;;;;;5054316;28;20216;-78
2023/02/02 10:17:50;;;;;;;10.13;4.72;;;10.30;99.90;;;;;;5053680;28;20214;-78
2023/02/02 10:20:40;;;;;;;9.35;5.05;;;10.40;99.90;;;;;;5053746;28;20517;-77
2023/02/02 10:23:27;;;;;;;10.48;5.50;;;10.40;99.90;;;;;;5052693;28;20533;-77
2023/02/02 10:26:13;;;;;;;11.73;4.72;;;10.40;99.90;;;;;;5052794;28;20201;-78
2023/02/02 10:28:47;;;;;;;9.98;5.30;;;10.40;99.90;;;;;;5053913;28;20169;-78
2023/02/02 10:31:30;;;;;;;9.98;5.35;;;10.40;99.90;;;;;;5055737;28;20650;-78
2023/02/02 10:34:06;;;;;;;9.25;5.45;;;10.40;99.90;;;;;;5067709;28;20262;-78
2023/02/02 10:36:55;;;;;;;6.50;4.90;;;10.40;99.90;;;;;;5066244;28;20722;-78
2023/02/02 10:39:35;;;;;;;7.72;5.85;;;10.40;99.90;;;;;;5060125;28;20200;-79
2023/02/02 10:42:18;;;;;;;12.85;5.07;;;10.50;99.90;;;;;;5051482;28;20208;-79
2023/02/02 10:44:49;;;;;;;13.05;5.70;;;10.50;99.90;;;;;;5052675;28;20166;-79
2023/02/02 10:47:25;;;;;;;10.73;5.78;;;10.50;99.90;;;;;;5056839;28;20204;-80
2023/02/02 10:50:10;;;;;;;10.45;5.93;;;10.50;99.90;;;;;;5051207;28;20207;-79
2023/02/02 10:52:38;;;;;;;10.48;6.25;;;10.50;99.90;;;;;;5051963;28;20180;-80
2023/02/02 10:55:13;;;;;;;8.20;5.00;;;10.60;99.90;;;;;;5051577;28;20184;-79
2023/02/02 10:58:03;;;;;;;10.90;6.07;;;10.60;99.90;;;;;;5053885;28;20180;-80
2023/02/02 11:00:36;;;;;;;20.27;6.97;;;10.60;99.90;;;;;;5052839;28;20211;-80
2023/02/02 11:03:03;;;;;;;14.40;5.20;;;10.60;99.90;;;;;;5052903;28;20702;-80
2023/02/02 11:08:39;;;;;;;11.32;5.47;;;10.70;99.90;;;;;;5053005;28;20165;-80
2023/02/02 11:11:21;;;;;;;17.50;8.10;;;10.70;99.90;;;;;;5052591;28;20206;-80
2023/02/02 11:13:52;;;;;;;14.85;6.32;;;10.70;99.90;;;;;;5054021;28;20263;-80
2023/02/02 11:16:22;;;;;;;8.18;5.65;;;10.80;99.90;;;;;;5050830;28;20224;-80
2023/02/02 11:18:48;;;;;;;10.80;6.45;;;10.80;99.90;;;;;;5052107;28;20191;-79
2023/02/02 11:21:28;;;;;;;9.97;5.63;;;10.80;99.90;;;;;;5050223;28;20169;-78
2023/02/02 11:24:03;;;;;;;11.30;6.88;;;10.90;99.90;;;;;;5059290;28;20587;-79
2023/02/02 11:26:54;;;;;;;14.27;6.88;;;10.90;99.90;;;;;;5059330;28;20215;-79
2023/02/02 11:29:23;;;;;;;10.27;6.10;;;10.90;99.90;;;;;;5060604;28;20230;-79
2023/02/02 11:31:49;;;;;;;8.20;5.85;;;11.00;99.90;;;;;;5059138;28;20256;-80
2023/02/02 11:34:21;;;;;;;7.27;5.03;;;11.10;99.90;;;;;;5057336;28;20193;-80
2023/02/02 11:37:01;;;;;;;9.88;5.95;;;11.10;99.90;;;;;;5061530;28;20244;-80
2023/02/02 11:39:27;;;;;;;8.98;5.13;;;11.10;99.90;;;;;;5059828;28;20588;-79
2023/02/02 11:42:15;;;;;;;10.40;6.67;;;11.10;99.90;;;;;;5059360;28;20169;-79
2023/02/02 11:44:46;;;;;;;12.15;6.63;;;11.20;99.90;;;;;;5028270;28;20583;-79
2023/02/02 11:47:27;;;;;;;16.70;6.60;;;11.20;99.90;;;;;;5053952;28;20196;-80
2023/02/02 11:49:54;;;;;;;10.50;7.68;;;11.20;99.90;;;;;;5051623;28;20189;-80
2023/02/02 11:52:22;;;;;;;12.98;5.85;;;11.30;99.90;;;;;;5052671;28;20204;-79
2023/02/02 11:54:57;;;;;;;11.40;6.45;;;11.40;99.90;;;;;;5060722;28;20173;-79
2023/02/02 11:57:25;;;;;;;11.02;5.22;;;11.40;99.90;;;;;;5057709;28;20204;-79
2023/02/02 12:00:17;;;;;;;6.72;5.07;;;11.40;99.90;;;;;;5055080;28;20168;-78
2023/02/02 12:02:48;;;;;;;9.13;5.75;;;11.40;99.90;;;;;;5044483;28;20539;-78
2023/02/02 12:05:20;;;;;;;10.98;6.07;;;11.40;99.90;;;;;;5042648;28;20177;-76
2023/02/02 12:07:47;;;;;;;10.30;6.10;;;11.50;99.90;;;;;;5058093;28;20583;-78
2023/02/02 12:10:33;;;;;;;9.02;5.32;;;11.50;99.90;;;;;;5057652;28;20180;-78
2023/02/02 12:13:11;;;;;;;14.55;6.40;;;11.60;99.90;;;;;;5059179;28;20172;-77
2023/02/02 12:16:09;;;;;;;5.90;5.35;;;11.60;99.90;;;;;;5050055;28;20212;-76
2023/02/02 12:18:43;;;;;;;7.65;4.68;;;11.60;99.90;;;;;;5034085;28;20192;-76
2023/02/02 12:21:27;;;;;;;10.55;5.28;;;11.70;99.90;;;;;;5054541;28;20177;-76
2023/02/02 12:24:18;;;;;;;9.55;4.93;;;11.60;99.90;;;;;;5051671;28;20188;-75
2023/02/02 12:26:54;;;;;;;10.70;6.47;;;11.70;99.90;;;;;;5060437;28;20193;-78
2023/02/02 12:29:33;;;;;;;12.48;5.63;;;11.70;99.90;;;;;;5050902;28;20175;-77
2023/02/02 12:32:33;;;;;;;8.40;4.70;;;11.70;99.90;;;;;;5061359;28;20244;-77
2023/02/02 12:35:30;;;;;;;10.32;5.88;;;11.80;99.90;;;;;;5049608;28;20184;-78
2023/02/02 12:38:17;;;;;;;8.95;6.18;;;11.80;99.90;;;;;;5049378;28;20193;-77
2023/02/02 12:41:23;;;;;;;9.25;5.43;;;11.80;99.90;;;;;;5050831;28;20252;-78
2023/02/02 12:44:27;;;;;;;7.95;6.00;;;11.90;99.90;;;;;;5050593;28;20256;-78
2023/02/02 12:47:13;;;;;;;11.55;7.30;;;12.00;99.90;;;;;;5046950;28;20224;-78
2023/02/02 12:49:57;;;;;;;15.55;7.22;;;12.10;99.90;;;;;;5049810;28;20187;-78
2023/02/02 12:52:22;;;;;;;13.10;6.80;;;12.20;99.90;;;;;;5049190;28;20219;-79
2023/02/02 12:58:54;;;;;;;10.68;5.93;;;12.40;99.90;;;;;;5051015;28;20262;-78
2023/02/02 13:01:43;;;;;;;13.35;5.68;;;12.50;99.90;;;;;;5051652;28;20206;-77
2023/02/02 13:04:33;;;;;;;11.85;5.63;;;12.60;99.90;;;;;;5033115;28;20180;-78
2023/02/02 13:07:16;;;;;;;10.93;6.05;;;12.70;99.90;;;;;;5049174;28;20185;-79
2023/02/02 13:10:13;;;;;;;11.18;6.35;;;12.70;99.90;;;;;;5051313;28;20177;-78
2023/02/02 13:12:45;;;;;;;9.80;6.82;;;12.80;99.90;;;;;;5049713;28;20169;-78
2023/02/02 13:15:20;;;;;;;13.75;6.22;;;12.90;99.90;;;;;;5053151;28;20176;-78
2023/02/02 13:17:55;;;;;;;13.55;6.60;;;12.90;99.90;;;;;;5050861;28;20169;-77
2023/02/02 13:20:39;;;;;;;10.13;5.17;;;12.90;99.90;;;;;;5054566;28;20171;-77
2023/02/02 13:23:21;;;;;;;10.17;4.60;;;12.90;99.90;;;;;;5055746;28;20586;-78
2023/02/02 13:25:54;;;;;;;5.75;5.00;;;12.90;99.90;;;;;;5054740;28;20646;-79